sensor_id;sensor_type;location;lat;lon;timestamp;P1;durP1;ratioP1;P2;durP2;ratioP2
19593;SDS011;9944;48.240;16.478;2023-04-26T00:02:23;4.07;;;3.25;;
19593;SDS011;9944;48.240;16.478;2023-04-26T00:06:29;4.53;;;3.20;;
19593;SDS011;9944;48.240;16.478;2023-04-26T00:10:32;6.45;;;3.63;;
19593;SDS011;9944;48.240;16.478;2023-04-26T00:14:35;6.18;;;3.55;;
19593;SDS011;9944;48.240;16.478;2023-04-26T00:18:38;5.95;;;3.75;;
19593;SDS011;9944;48.240;16.478;2023-04-26T00:22:42;5.80;;;3.40;;
19593;SDS011;9944;48.240;16.478;2023-04-26T00:26:46;4.70;;;3.35;;
19593;SDS011;9944;48.240;16.478;2023-04-26T00:30:49;6.00;;;3.75;;
19593;SDS011;9944;48.240;16.478;2023-04-26T00:34:52;5.15;;;3.70;;
19593;SDS011;9944;48.240;16.478;2023-04-26T00:38:56;6.55;;;3.50;;
19593;SDS011;9944;48.240;16.478;2023-04-26T00:43:00;5.13;;;3.33;;
19593;SDS011;9944;48.240;16.478;2023-04-26T00:47:04;5.15;;;3.75;;
19593;SDS011;9944;48.240;16.478;2023-04-26T00:51:07;5.85;;;3.80;;
19593;SDS011;9944;48.240;16.478;2023-04-26T00:55:12;5.85;;;4.07;;
19593;SDS011;9944;48.240;16.478;2023-04-26T00:59:17;6.70;;;3.50;;
19593;SDS011;9944;48.240;16.478;2023-04-26T01:03:21;6.78;;;4.13;;
19593;SDS011;9944;48.240;16.478;2023-04-26T01:07:25;5.90;;;3.63;;
19593;SDS011;9944;48.240;16.478;2023-04-26T01:11:29;5.18;;;3.70;;
19593;SDS011;9944;48.240;16.478;2023-04-26T01:15:33;5.45;;;3.50;;
19593;SDS011;9944;48.240;16.478;2023-04-26T01:19:45;5.18;;;3.53;;
19593;SDS011;9944;48.240;16.478;2023-04-26T01:52:40;5.72;;;3.53;;
19593;SDS011;9944;48.240;16.478;2023-04-26T01:56:43;5.65;;;3.55;;
19593;SDS011;9944;48.240;16.478;2023-04-26T02:00:46;5.45;;;3.60;;
19593;SDS011;9944;48.240;16.478;2023-04-26T02:04:49;4.55;;;3.55;;
19593;SDS011;9944;48.240;16.478;2023-04-26T02:08:53;4.95;;;3.47;;
19593;SDS011;9944;48.240;16.478;2023-04-26T02:12:58;4.30;;;3.40;;
19593;SDS011;9944;48.240;16.478;2023-04-26T02:17:02;6.22;;;3.28;;
19593;SDS011;9944;48.240;16.478;2023-04-26T02:21:09;6.18;;;3.30;;
19593;SDS011;9944;48.240;16.478;2023-04-26T02:25:14;4.05;;;2.75;;
19593;SDS011;9944;48.240;16.478;2023-04-26T02:29:17;4.97;;;2.95;;
19593;SDS011;9944;48.240;16.478;2023-04-26T02:33:36;4.68;;;2.88;;
19593;SDS011;9944;48.240;16.478;2023-04-26T02:37:39;4.57;;;2.97;;
19593;SDS011;9944;48.240;16.478;2023-04-26T02:41:44;6.85;;;3.05;;
19593;SDS011;9944;48.240;16.478;2023-04-26T02:45:47;4.28;;;3.13;;
19593;SDS011;9944;48.240;16.478;2023-04-26T02:49:50;6.13;;;3.72;;
19593;SDS011;9944;48.240;16.478;2023-04-26T02:53:53;5.80;;;3.30;;
19593;SDS011;9944;48.240;16.478;2023-04-26T02:57:59;6.20;;;3.00;;
19593;SDS011;9944;48.240;16.478;2023-04-26T03:02:02;5.63;;;3.10;;
19593;SDS011;9944;48.240;16.478;2023-04-26T03:06:06;7.18;;;3.45;;
19593;SDS011;9944;48.240;16.478;2023-04-26T03:10:09;4.25;;;3.10;;
19593;SDS011;9944;48.240;16.478;2023-04-26T03:14:15;6.50;;;3.22;;
19593;SDS011;9944;48.240;16.478;2023-04-26T03:18:19;5.70;;;2.78;;
19593;SDS011;9944;48.240;16.478;2023-04-26T03:22:23;7.28;;;2.97;;
19593;SDS011;9944;48.240;16.478;2023-04-26T03:26:26;4.47;;;2.83;;
19593;SDS011;9944;48.240;16.478;2023-04-26T03:30:31;5.53;;;2.50;;
19593;SDS011;9944;48.240;16.478;2023-04-26T03:34:34;6.93;;;3.17;;
19593;SDS011;9944;48.240;16.478;2023-04-26T03:38:37;3.72;;;2.47;;
19593;SDS011;9944;48.240;16.478;2023-04-26T03:42:41;3.10;;;2.20;;
19593;SDS011;9944;48.240;16.478;2023-04-26T03:46:45;4.03;;;2.45;;
19593;SDS011;9944;48.240;16.478;2023-04-26T03:50:48;3.63;;;2.60;;
19593;SDS011;9944;48.240;16.478;2023-04-26T03:54:51;6.30;;;2.70;;
19593;SDS011;9944;48.240;16.478;2023-04-26T03:58:56;5.00;;;2.58;;
19593;SDS011;9944;48.240;16.478;2023-04-26T04:03:02;6.18;;;2.40;;
19593;SDS011;9944;48.240;16.478;2023-04-26T04:07:05;5.80;;;2.53;;
19593;SDS011;9944;48.240;16.478;2023-04-26T04:11:08;4.03;;;2.45;;
19593;SDS011;9944;48.240;16.478;2023-04-26T04:15:12;4.68;;;2.78;;
19593;SDS011;9944;48.240;16.478;2023-04-26T04:19:21;4.00;;;2.65;;
19593;SDS011;9944;48.240;16.478;2023-04-26T04:23:24;4.55;;;2.58;;
19593;SDS011;9944;48.240;16.478;2023-04-26T04:27:27;3.85;;;2.53;;
19593;SDS011;9944;48.240;16.478;2023-04-26T04:31:31;4.70;;;2.60;;
19593;SDS011;9944;48.240;16.478;2023-04-26T04:35:35;3.20;;;2.60;;
19593;SDS011;9944;48.240;16.478;2023-04-26T04:39:39;3.60;;;2.50;;
19593;SDS011;9944;48.240;16.478;2023-04-26T04:43:43;5.30;;;2.85;;
19593;SDS011;9944;48.240;16.478;2023-04-26T04:47:46;3.88;;;2.38;;
19593;SDS011;9944;48.240;16.478;2023-04-26T04:51:50;4.32;;;2.75;;
19593;SDS011;9944;48.240;16.478;2023-04-26T04:55:54;5.00;;;2.53;;
19593;SDS011;9944;48.240;16.478;2023-04-26T04:59:57;4.20;;;2.65;;
19593;SDS011;9944;48.240;16.478;2023-04-26T05:04:07;3.70;;;2.40;;
19593;SDS011;9944;48.240;16.478;2023-04-26T05:08:13;5.05;;;2.63;;
19593;SDS011;9944;48.240;16.478;2023-04-26T05:12:16;4.53;;;2.13;;
19593;SDS011;9944;48.240;16.478;2023-04-26T05:16:20;3.88;;;2.45;;
19593;SDS011;9944;48.240;16.478;2023-04-26T05:20:23;4.28;;;2.60;;
19593;SDS011;9944;48.240;16.478;2023-04-26T05:24:31;5.10;;;2.50;;
19593;SDS011;9944;48.240;16.478;2023-04-26T05:28:34;5.35;;;2.55;;
19593;SDS011;9944;48.240;16.478;2023-04-26T05:32:53;6.38;;;2.70;;
19593;SDS011;9944;48.240;16.478;2023-04-26T05:37:20;3.90;;;2.60;;
19593;SDS011;9944;48.240;16.478;2023-04-26T05:41:25;5.05;;;2.55;;
19593;SDS011;9944;48.240;16.478;2023-04-26T05:45:30;8.88;;;2.75;;
19593;SDS011;9944;48.240;16.478;2023-04-26T05:49:34;5.07;;;2.42;;
19593;SDS011;9944;48.240;16.478;2023-04-26T05:53:37;3.88;;;2.35;;
19593;SDS011;9944;48.240;16.478;2023-04-26T05:57:43;4.20;;;2.78;;
19593;SDS011;9944;48.240;16.478;2023-04-26T06:01:47;3.25;;;2.33;;
19593;SDS011;9944;48.240;16.478;2023-04-26T06:05:50;6.18;;;2.63;;
19593;SDS011;9944;48.240;16.478;2023-04-26T06:09:55;6.38;;;2.67;;
19593;SDS011;9944;48.240;16.478;2023-04-26T06:14:00;4.90;;;2.42;;
19593;SDS011;9944;48.240;16.478;2023-04-26T06:18:03;4.68;;;2.42;;
19593;SDS011;9944;48.240;16.478;2023-04-26T06:22:07;3.97;;;2.50;;
19593;SDS011;9944;48.240;16.478;2023-04-26T06:26:10;4.95;;;2.30;;
19593;SDS011;9944;48.240;16.478;2023-04-26T06:30:14;5.20;;;2.60;;
19593;SDS011;9944;48.240;16.478;2023-04-26T06:34:20;6.15;;;2.60;;
19593;SDS011;9944;48.240;16.478;2023-04-26T06:38:24;3.78;;;2.40;;
19593;SDS011;9944;48.240;16.478;2023-04-26T06:42:27;7.53;;;2.72;;
19593;SDS011;9944;48.240;16.478;2023-04-26T06:46:47;4.47;;;2.50;;
19593;SDS011;9944;48.240;16.478;2023-04-26T06:50:50;6.05;;;2.88;;
19593;SDS011;9944;48.240;16.478;2023-04-26T06:54:54;4.13;;;2.50;;
19593;SDS011;9944;48.240;16.478;2023-04-26T06:58:58;4.72;;;2.70;;
19593;SDS011;9944;48.240;16.478;2023-04-26T07:03:04;5.75;;;2.88;;
19593;SDS011;9944;48.240;16.478;2023-04-26T07:07:07;6.22;;;2.63;;
19593;SDS011;9944;48.240;16.478;2023-04-26T07:11:13;4.65;;;2.38;;
19593;SDS011;9944;48.240;16.478;2023-04-26T07:15:16;6.00;;;2.20;;
19593;SDS011;9944;48.240;16.478;2023-04-26T07:19:20;4.22;;;2.45;;
19593;SDS011;9944;48.240;16.478;2023-04-26T07:23:23;5.20;;;2.05;;
19593;SDS011;9944;48.240;16.478;2023-04-26T07:27:27;4.00;;;2.17;;
19593;SDS011;9944;48.240;16.478;2023-04-26T07:31:30;2.83;;;1.88;;
19593;SDS011;9944;48.240;16.478;2023-04-26T07:35:34;4.38;;;1.90;;
19593;SDS011;9944;48.240;16.478;2023-04-26T07:39:37;5.70;;;2.22;;
19593;SDS011;9944;48.240;16.478;2023-04-26T07:43:40;3.30;;;2.15;;
19593;SDS011;9944;48.240;16.478;2023-04-26T07:47:44;3.20;;;1.70;;
19593;SDS011;9944;48.240;16.478;2023-04-26T07:51:48;2.42;;;1.80;;
19593;SDS011;9944;48.240;16.478;2023-04-26T07:55:53;5.05;;;1.85;;
19593;SDS011;9944;48.240;16.478;2023-04-26T07:59:56;5.97;;;2.13;;
19593;SDS011;9944;48.240;16.478;2023-04-26T08:03:59;3.67;;;1.98;;
19593;SDS011;9944;48.240;16.478;2023-04-26T08:08:05;3.97;;;1.90;;
19593;SDS011;9944;48.240;16.478;2023-04-26T08:12:08;3.85;;;1.85;;
19593;SDS011;9944;48.240;16.478;2023-04-26T08:16:11;3.83;;;1.90;;
19593;SDS011;9944;48.240;16.478;2023-04-26T08:20:14;3.08;;;1.70;;
19593;SDS011;9944;48.240;16.478;2023-04-26T08:24:19;2.90;;;1.90;;
19593;SDS011;9944;48.240;16.478;2023-04-26T08:28:22;2.92;;;2.08;;
19593;SDS011;9944;48.240;16.478;2023-04-26T08:32:25;2.83;;;1.73;;
19593;SDS011;9944;48.240;16.478;2023-04-26T08:36:28;2.40;;;1.92;;
19593;SDS011;9944;48.240;16.478;2023-04-26T08:40:34;4.88;;;1.90;;
19593;SDS011;9944;48.240;16.478;2023-04-26T08:44:38;4.38;;;1.90;;
19593;SDS011;9944;48.240;16.478;2023-04-26T08:48:43;4.93;;;1.73;;
19593;SDS011;9944;48.240;16.478;2023-04-26T08:52:51;3.00;;;1.60;;
19593;SDS011;9944;48.240;16.478;2023-04-26T08:56:56;2.33;;;1.90;;
19593;SDS011;9944;48.240;16.478;2023-04-26T09:01:00;3.03;;;1.73;;
19593;SDS011;9944;48.240;16.478;2023-04-26T09:05:05;2.15;;;1.90;;
19593;SDS011;9944;48.240;16.478;2023-04-26T09:09:09;4.25;;;1.60;;
19593;SDS011;9944;48.240;16.478;2023-04-26T09:13:16;3.28;;;1.75;;
19593;SDS011;9944;48.240;16.478;2023-04-26T09:17:26;1.98;;;1.65;;
19593;SDS011;9944;48.240;16.478;2023-04-26T09:21:30;3.60;;;2.05;;
19593;SDS011;9944;48.240;16.478;2023-04-26T09:25:33;4.47;;;1.80;;
19593;SDS011;9944;48.240;16.478;2023-04-26T09:29:38;2.90;;;1.80;;
19593;SDS011;9944;48.240;16.478;2023-04-26T09:33:56;2.33;;;1.63;;
19593;SDS011;9944;48.240;16.478;2023-04-26T09:38:00;3.58;;;1.77;;
19593;SDS011;9944;48.240;16.478;2023-04-26T09:42:15;4.07;;;1.70;;
19593;SDS011;9944;48.240;16.478;2023-04-26T09:46:22;3.03;;;2.10;;
19593;SDS011;9944;48.240;16.478;2023-04-26T09:50:26;5.60;;;1.90;;
19593;SDS011;9944;48.240;16.478;2023-04-26T09:54:37;3.35;;;1.85;;
19593;SDS011;9944;48.240;16.478;2023-04-26T09:58:53;2.50;;;1.60;;
19593;SDS011;9944;48.240;16.478;2023-04-26T10:03:00;5.28;;;2.13;;
19593;SDS011;9944;48.240;16.478;2023-04-26T10:07:04;3.30;;;1.90;;
19593;SDS011;9944;48.240;16.478;2023-04-26T10:11:07;3.15;;;2.10;;
19593;SDS011;9944;48.240;16.478;2023-04-26T10:15:12;3.55;;;2.30;;
19593;SDS011;9944;48.240;16.478;2023-04-26T10:19:17;2.58;;;2.20;;
19593;SDS011;9944;48.240;16.478;2023-04-26T10:23:22;2.42;;;1.85;;
19593;SDS011;9944;48.240;16.478;2023-04-26T10:32:04;3.08;;;2.15;;
19593;SDS011;9944;48.240;16.478;2023-04-26T10:36:11;3.15;;;2.17;;
19593;SDS011;9944;48.240;16.478;2023-04-26T10:40:21;3.80;;;2.40;;
19593;SDS011;9944;48.240;16.478;2023-04-26T10:48:50;3.40;;;2.00;;
19593;SDS011;9944;48.240;16.478;2023-04-26T10:53:07;2.97;;;2.10;;
19593;SDS011;9944;48.240;16.478;2023-04-26T10:57:10;4.05;;;2.30;;
19593;SDS011;9944;48.240;16.478;2023-04-26T11:01:14;4.80;;;2.20;;
19593;SDS011;9944;48.240;16.478;2023-04-26T11:05:31;3.38;;;2.15;;
19593;SDS011;9944;48.240;16.478;2023-04-26T11:09:47;4.00;;;1.95;;
19593;SDS011;9944;48.240;16.478;2023-04-26T11:13:50;5.07;;;2.00;;
19593;SDS011;9944;48.240;16.478;2023-04-26T11:17:53;3.03;;;1.70;;
19593;SDS011;9944;48.240;16.478;2023-04-26T11:21:57;3.33;;;1.60;;
19593;SDS011;9944;48.240;16.478;2023-04-26T11:26:03;5.47;;;2.47;;
19593;SDS011;9944;48.240;16.478;2023-04-26T11:30:09;2.63;;;1.90;;
19593;SDS011;9944;48.240;16.478;2023-04-26T11:34:13;2.42;;;2.22;;
19593;SDS011;9944;48.240;16.478;2023-04-26T11:38:17;2.25;;;1.77;;
19593;SDS011;9944;48.240;16.478;2023-04-26T11:42:24;2.53;;;2.05;;
19593;SDS011;9944;48.240;16.478;2023-04-26T11:46:27;2.88;;;2.17;;
19593;SDS011;9944;48.240;16.478;2023-04-26T11:50:31;3.03;;;1.83;;
19593;SDS011;9944;48.240;16.478;2023-04-26T11:54:35;2.92;;;2.10;;
19593;SDS011;9944;48.240;16.478;2023-04-26T11:58:42;3.20;;;2.25;;
19593;SDS011;9944;48.240;16.478;2023-04-26T12:02:46;3.08;;;2.25;;
19593;SDS011;9944;48.240;16.478;2023-04-26T12:06:50;3.15;;;2.20;;
19593;SDS011;9944;48.240;16.478;2023-04-26T12:10:55;3.35;;;1.90;;
19593;SDS011;9944;48.240;16.478;2023-04-26T12:15:03;2.90;;;1.85;;
19593;SDS011;9944;48.240;16.478;2023-04-26T12:19:14;3.03;;;1.88;;
19593;SDS011;9944;48.240;16.478;2023-04-26T12:23:17;2.97;;;1.90;;
19593;SDS011;9944;48.240;16.478;2023-04-26T12:27:20;2.63;;;1.90;;
19593;SDS011;9944;48.240;16.478;2023-04-26T12:31:25;3.45;;;2.10;;
19593;SDS011;9944;48.240;16.478;2023-04-26T12:35:28;3.15;;;1.73;;
19593;SDS011;9944;48.240;16.478;2023-04-26T12:39:32;1.77;;;1.35;;
19593;SDS011;9944;48.240;16.478;2023-04-26T12:43:35;1.98;;;1.30;;
19593;SDS011;9944;48.240;16.478;2023-04-26T12:47:39;2.22;;;1.75;;
19593;SDS011;9944;48.240;16.478;2023-04-26T12:51:42;2.85;;;1.58;;
19593;SDS011;9944;48.240;16.478;2023-04-26T12:55:46;2.25;;;1.38;;
19593;SDS011;9944;48.240;16.478;2023-04-26T12:59:49;1.38;;;1.27;;
19593;SDS011;9944;48.240;16.478;2023-04-26T13:03:54;1.85;;;1.40;;
19593;SDS011;9944;48.240;16.478;2023-04-26T13:08:00;2.30;;;1.40;;
19593;SDS011;9944;48.240;16.478;2023-04-26T13:12:03;1.95;;;1.35;;
19593;SDS011;9944;48.240;16.478;2023-04-26T13:16:07;2.83;;;1.23;;
19593;SDS011;9944;48.240;16.478;2023-04-26T13:20:12;2.17;;;1.30;;
19593;SDS011;9944;48.240;16.478;2023-04-26T13:24:15;2.05;;;1.10;;
19593;SDS011;9944;48.240;16.478;2023-04-26T13:28:18;2.47;;;1.60;;
19593;SDS011;9944;48.240;16.478;2023-04-26T13:32:21;1.73;;;1.30;;
19593;SDS011;9944;48.240;16.478;2023-04-26T13:36:25;1.83;;;1.30;;
19593;SDS011;9944;48.240;16.478;2023-04-26T13:40:29;2.25;;;1.55;;
19593;SDS011;9944;48.240;16.478;2023-04-26T13:44:32;2.70;;;1.40;;
19593;SDS011;9944;48.240;16.478;2023-04-26T13:48:39;2.08;;;1.42;;
19593;SDS011;9944;48.240;16.478;2023-04-26T13:52:44;2.67;;;1.42;;
19593;SDS011;9944;48.240;16.478;2023-04-26T13:56:47;1.77;;;1.42;;
19593;SDS011;9944;48.240;16.478;2023-04-26T14:00:50;4.10;;;1.30;;
19593;SDS011;9944;48.240;16.478;2023-04-26T14:04:54;2.17;;;1.40;;
19593;SDS011;9944;48.240;16.478;2023-04-26T14:08:59;3.50;;;1.40;;
19593;SDS011;9944;48.240;16.478;2023-04-26T14:13:02;2.78;;;1.50;;
19593;SDS011;9944;48.240;16.478;2023-04-26T14:17:05;3.22;;;1.67;;
19593;SDS011;9944;48.240;16.478;2023-04-26T14:21:08;1.50;;;1.35;;
19593;SDS011;9944;48.240;16.478;2023-04-26T14:25:13;2.92;;;1.35;;
19593;SDS011;9944;48.240;16.478;2023-04-26T14:29:17;2.95;;;1.35;;
19593;SDS011;9944;48.240;16.478;2023-04-26T14:33:20;9.75;;;5.70;;
19593;SDS011;9944;48.240;16.478;2023-04-26T14:37:25;6.03;;;1.88;;
19593;SDS011;9944;48.240;16.478;2023-04-26T14:41:29;2.20;;;1.40;;
19593;SDS011;9944;48.240;16.478;2023-04-26T14:45:33;1.55;;;1.20;;
19593;SDS011;9944;48.240;16.478;2023-04-26T14:49:45;2.25;;;1.23;;
19593;SDS011;9944;48.240;16.478;2023-04-26T14:53:48;1.95;;;1.05;;
19593;SDS011;9944;48.240;16.478;2023-04-26T14:57:52;2.13;;;1.40;;
19593;SDS011;9944;48.240;16.478;2023-04-26T15:01:56;2.17;;;1.42;;
19593;SDS011;9944;48.240;16.478;2023-04-26T15:05:59;3.25;;;1.35;;
19593;SDS011;9944;48.240;16.478;2023-04-26T15:10:02;3.25;;;1.20;;
19593;SDS011;9944;48.240;16.478;2023-04-26T15:14:07;1.23;;;1.05;;
19593;SDS011;9944;48.240;16.478;2023-04-26T15:18:11;1.95;;;1.10;;
19593;SDS011;9944;48.240;16.478;2023-04-26T15:22:14;1.75;;;1.10;;
19593;SDS011;9944;48.240;16.478;2023-04-26T15:26:17;2.10;;;1.40;;
19593;SDS011;9944;48.240;16.478;2023-04-26T15:30:21;2.85;;;1.90;;
19593;SDS011;9944;48.240;16.478;2023-04-26T15:34:24;2.42;;;1.80;;
19593;SDS011;9944;48.240;16.478;2023-04-26T15:38:30;2.92;;;1.67;;
19593;SDS011;9944;48.240;16.478;2023-04-26T15:42:35;1.75;;;1.63;;
19593;SDS011;9944;48.240;16.478;2023-04-26T15:46:39;2.17;;;1.55;;
19593;SDS011;9944;48.240;16.478;2023-04-26T15:50:42;3.65;;;1.70;;
19593;SDS011;9944;48.240;16.478;2023-04-26T15:54:46;2.30;;;1.58;;
19593;SDS011;9944;48.240;16.478;2023-04-26T15:58:49;2.75;;;1.50;;
19593;SDS011;9944;48.240;16.478;2023-04-26T16:02:53;2.55;;;1.70;;
19593;SDS011;9944;48.240;16.478;2023-04-26T16:06:57;2.83;;;1.60;;
19593;SDS011;9944;48.240;16.478;2023-04-26T16:11:01;3.08;;;1.65;;
19593;SDS011;9944;48.240;16.478;2023-04-26T16:15:05;2.08;;;1.42;;
19593;SDS011;9944;48.240;16.478;2023-04-26T16:19:11;2.35;;;1.67;;
19593;SDS011;9944;48.240;16.478;2023-04-26T16:23:14;2.38;;;1.52;;
19593;SDS011;9944;48.240;16.478;2023-04-26T16:27:18;1.92;;;1.30;;
19593;SDS011;9944;48.240;16.478;2023-04-26T16:31:22;2.78;;;1.58;;
19593;SDS011;9944;48.240;16.478;2023-04-26T16:35:28;3.35;;;1.60;;
19593;SDS011;9944;48.240;16.478;2023-04-26T16:39:31;1.70;;;1.50;;
19593;SDS011;9944;48.240;16.478;2023-04-26T16:43:35;4.18;;;1.70;;
19593;SDS011;9944;48.240;16.478;2023-04-26T16:47:38;1.65;;;1.38;;
19593;SDS011;9944;48.240;16.478;2023-04-26T16:51:42;1.77;;;1.40;;
19593;SDS011;9944;48.240;16.478;2023-04-26T16:55:51;2.50;;;1.48;;
19593;SDS011;9944;48.240;16.478;2023-04-26T16:59:54;2.10;;;1.50;;
19593;SDS011;9944;48.240;16.478;2023-04-26T17:03:58;2.08;;;1.27;;
19593;SDS011;9944;48.240;16.478;2023-04-26T17:08:03;1.52;;;1.23;;
19593;SDS011;9944;48.240;16.478;2023-04-26T17:12:06;1.52;;;1.30;;
19593;SDS011;9944;48.240;16.478;2023-04-26T17:16:10;1.92;;;1.40;;
19593;SDS011;9944;48.240;16.478;2023-04-26T17:20:13;1.42;;;1.30;;
19593;SDS011;9944;48.240;16.478;2023-04-26T17:24:18;3.50;;;1.70;;
19593;SDS011;9944;48.240;16.478;2023-04-26T17:28:21;1.63;;;1.40;;
19593;SDS011;9944;48.240;16.478;2023-04-26T17:32:25;2.90;;;1.60;;
19593;SDS011;9944;48.240;16.478;2023-04-26T17:36:28;2.45;;;1.73;;
19593;SDS011;9944;48.240;16.478;2023-04-26T17:40:33;6.00;;;1.60;;
19593;SDS011;9944;48.240;16.478;2023-04-26T17:44:36;3.58;;;1.30;;
19593;SDS011;9944;48.240;16.478;2023-04-26T17:48:39;4.40;;;1.50;;
19593;SDS011;9944;48.240;16.478;2023-04-26T17:52:42;2.80;;;1.50;;
19593;SDS011;9944;48.240;16.478;2023-04-26T17:56:47;3.28;;;1.40;;
19593;SDS011;9944;48.240;16.478;2023-04-26T18:00:50;3.38;;;1.50;;
19593;SDS011;9944;48.240;16.478;2023-04-26T18:04:54;1.70;;;1.60;;
19593;SDS011;9944;48.240;16.478;2023-04-26T18:08:58;2.90;;;1.90;;
19593;SDS011;9944;48.240;16.478;2023-04-26T18:13:02;2.03;;;1.55;;
19593;SDS011;9944;48.240;16.478;2023-04-26T18:17:06;3.05;;;1.60;;
19593;SDS011;9944;48.240;16.478;2023-04-26T18:21:09;2.22;;;1.58;;
19593;SDS011;9944;48.240;16.478;2023-04-26T18:25:12;2.75;;;1.52;;
19593;SDS011;9944;48.240;16.478;2023-04-26T18:29:17;3.20;;;1.40;;
19593;SDS011;9944;48.240;16.478;2023-04-26T18:33:20;2.65;;;1.45;;
19593;SDS011;9944;48.240;16.478;2023-04-26T18:37:23;1.85;;;1.70;;
19593;SDS011;9944;48.240;16.478;2023-04-26T18:41:26;2.63;;;1.80;;
19593;SDS011;9944;48.240;16.478;2023-04-26T18:45:31;1.90;;;1.70;;
19593;SDS011;9944;48.240;16.478;2023-04-26T18:49:34;2.65;;;1.80;;
19593;SDS011;9944;48.240;16.478;2023-04-26T18:53:37;3.17;;;1.88;;
19593;SDS011;9944;48.240;16.478;2023-04-26T18:57:40;3.42;;;2.10;;
19593;SDS011;9944;48.240;16.478;2023-04-26T19:01:44;3.00;;;2.00;;
19593;SDS011;9944;48.240;16.478;2023-04-26T19:05:49;3.58;;;1.83;;
19593;SDS011;9944;48.240;16.478;2023-04-26T19:09:54;3.45;;;1.90;;
19593;SDS011;9944;48.240;16.478;2023-04-26T19:14:00;3.83;;;2.05;;
19593;SDS011;9944;48.240;16.478;2023-04-26T19:18:05;3.75;;;2.03;;
19593;SDS011;9944;48.240;16.478;2023-04-26T19:22:08;3.65;;;2.03;;
19593;SDS011;9944;48.240;16.478;2023-04-26T19:26:11;2.65;;;2.10;;
19593;SDS011;9944;48.240;16.478;2023-04-26T19:30:14;2.28;;;2.08;;
19593;SDS011;9944;48.240;16.478;2023-04-26T19:34:19;2.60;;;2.00;;
19593;SDS011;9944;48.240;16.478;2023-04-26T19:38:22;3.45;;;2.17;;
19593;SDS011;9944;48.240;16.478;2023-04-26T19:42:26;2.17;;;1.90;;
19593;SDS011;9944;48.240;16.478;2023-04-26T19:46:29;3.33;;;2.00;;
19593;SDS011;9944;48.240;16.478;2023-04-26T19:50:37;4.40;;;2.25;;
19593;SDS011;9944;48.240;16.478;2023-04-26T19:54:41;3.95;;;2.38;;
19593;SDS011;9944;48.240;16.478;2023-04-26T19:58:44;3.55;;;2.40;;
19593;SDS011;9944;48.240;16.478;2023-04-26T20:02:47;4.47;;;2.67;;
19593;SDS011;9944;48.240;16.478;2023-04-26T20:06:52;6.07;;;2.70;;
19593;SDS011;9944;48.240;16.478;2023-04-26T20:10:56;6.63;;;3.10;;
19593;SDS011;9944;48.240;16.478;2023-04-26T20:15:03;5.82;;;2.55;;
19593;SDS011;9944;48.240;16.478;2023-04-26T20:19:07;3.50;;;2.30;;
19593;SDS011;9944;48.240;16.478;2023-04-26T20:23:12;5.32;;;2.40;;
19593;SDS011;9944;48.240;16.478;2023-04-26T20:27:15;5.05;;;2.45;;
19593;SDS011;9944;48.240;16.478;2023-04-26T20:31:18;3.20;;;2.22;;
19593;SDS011;9944;48.240;16.478;2023-04-26T20:35:21;5.07;;;2.60;;
19593;SDS011;9944;48.240;16.478;2023-04-26T20:39:26;3.00;;;2.47;;
19593;SDS011;9944;48.240;16.478;2023-04-26T20:43:29;4.13;;;3.05;;
19593;SDS011;9944;48.240;16.478;2023-04-26T20:47:33;2.22;;;1.88;;
19593;SDS011;9944;48.240;16.478;2023-04-26T20:51:37;4.07;;;2.50;;
19593;SDS011;9944;48.240;16.478;2023-04-26T20:55:41;3.20;;;2.75;;
19593;SDS011;9944;48.240;16.478;2023-04-26T20:59:44;3.05;;;2.30;;
19593;SDS011;9944;48.240;16.478;2023-04-26T21:03:47;4.20;;;2.63;;
19593;SDS011;9944;48.240;16.478;2023-04-26T21:07:50;3.38;;;2.30;;
19593;SDS011;9944;48.240;16.478;2023-04-26T21:11:55;4.53;;;2.35;;
19593;SDS011;9944;48.240;16.478;2023-04-26T21:15:58;4.30;;;2.38;;
19593;SDS011;9944;48.240;16.478;2023-04-26T21:20:03;4.95;;;2.70;;
19593;SDS011;9944;48.240;16.478;2023-04-26T21:24:07;3.35;;;2.58;;
19593;SDS011;9944;48.240;16.478;2023-04-26T21:28:11;5.03;;;2.78;;
19593;SDS011;9944;48.240;16.478;2023-04-26T21:32:14;4.28;;;2.83;;
19593;SDS011;9944;48.240;16.478;2023-04-26T21:36:17;3.35;;;2.50;;
19593;SDS011;9944;48.240;16.478;2023-04-26T21:40:20;2.63;;;2.33;;
19593;SDS011;9944;48.240;16.478;2023-04-26T21:44:25;4.32;;;3.00;;
19593;SDS011;9944;48.240;16.478;2023-04-26T21:48:28;3.65;;;2.72;;
19593;SDS011;9944;48.240;16.478;2023-04-26T21:52:31;4.85;;;2.30;;
19593;SDS011;9944;48.240;16.478;2023-04-26T21:56:34;5.63;;;2.70;;
19593;SDS011;9944;48.240;16.478;2023-04-26T22:00:39;3.88;;;2.03;;
19593;SDS011;9944;48.240;16.478;2023-04-26T22:04:42;3.38;;;2.50;;
19593;SDS011;9944;48.240;16.478;2023-04-26T22:08:45;4.25;;;2.63;;
19593;SDS011;9944;48.240;16.478;2023-04-26T22:12:49;3.95;;;2.60;;
19593;SDS011;9944;48.240;16.478;2023-04-26T22:16:53;3.65;;;2.63;;
19593;SDS011;9944;48.240;16.478;2023-04-26T22:20:56;2.30;;;1.98;;
19593;SDS011;9944;48.240;16.478;2023-04-26T22:24:59;4.95;;;2.40;;
19593;SDS011;9944;48.240;16.478;2023-04-26T22:29:03;2.67;;;2.25;;
19593;SDS011;9944;48.240;16.478;2023-04-26T22:33:07;4.80;;;2.80;;
19593;SDS011;9944;48.240;16.478;2023-04-26T22:37:12;3.20;;;2.47;;
19593;SDS011;9944;48.240;16.478;2023-04-26T22:41:22;3.75;;;2.50;;
19593;SDS011;9944;48.240;16.478;2023-04-26T22:45:25;4.05;;;2.42;;
19593;SDS011;9944;48.240;16.478;2023-04-26T22:49:29;3.40;;;2.25;;
19593;SDS011;9944;48.240;16.478;2023-04-26T22:53:32;3.53;;;2.70;;
19593;SDS011;9944;48.240;16.478;2023-04-26T22:57:35;4.05;;;2.78;;
19593;SDS011;9944;48.240;16.478;2023-04-26T23:01:38;4.25;;;2.25;;
19593;SDS011;9944;48.240;16.478;2023-04-26T23:05:43;3.50;;;2.35;;
19593;SDS011;9944;48.240;16.478;2023-04-26T23:09:47;3.75;;;2.50;;
19593;SDS011;9944;48.240;16.478;2023-04-26T23:13:50;4.80;;;2.55;;
19593;SDS011;9944;48.240;16.478;2023-04-26T23:17:55;3.97;;;2.80;;
19593;SDS011;9944;48.240;16.478;2023-04-26T23:21:59;4.22;;;2.75;;
19593;SDS011;9944;48.240;16.478;2023-04-26T23:26:03;3.95;;;2.58;;
19593;SDS011;9944;48.240;16.478;2023-04-26T23:30:09;3.50;;;2.45;;
19593;SDS011;9944;48.240;16.478;2023-04-26T23:34:14;4.32;;;2.97;;
19593;SDS011;9944;48.240;16.478;2023-04-26T23:38:18;5.65;;;2.47;;
19593;SDS011;9944;48.240;16.478;2023-04-26T23:42:21;3.15;;;2.38;;
19593;SDS011;9944;48.240;16.478;2023-04-26T23:46:24;4.95;;;2.53;;
19593;SDS011;9944;48.240;16.478;2023-04-26T23:50:27;3.70;;;2.42;;
19593;SDS011;9944;48.240;16.478;2023-04-26T23:54:32;3.85;;;2.50;;
19593;SDS011;9944;48.240;16.478;2023-04-26T23:58:35;3.47;;;2.70;;
